sensor_id;sensor_type;location;lat;lon;timestamp;temperature;humidity
16154;DHT22;8182;55.648;13.208;2023-08-24T00:00:28;17.80;99.90
16154;DHT22;8182;55.648;13.208;2023-08-24T00:02:55;17.80;99.90
16154;DHT22;8182;55.648;13.208;2023-08-24T00:05:22;17.80;99.90
16154;DHT22;8182;55.648;13.208;2023-08-24T00:07:50;17.80;99.90
16154;DHT22;8182;55.648;13.208;2023-08-24T00:10:20;17.70;99.90
16154;DHT22;8182;55.648;13.208;2023-08-24T00:12:48;17.70;99.90
16154;DHT22;8182;55.648;13.208;2023-08-24T00:15:15;17.60;99.90
16154;DHT22;8182;55.648;13.208;2023-08-24T00:17:42;17.60;99.90
16154;DHT22;8182;55.648;13.208;2023-08-24T00:20:09;17.50;99.90
16154;DHT22;8182;55.648;13.208;2023-08-24T00:22:37;17.40;99.90
16154;DHT22;8182;55.648;13.208;2023-08-24T00:25:07;17.30;99.90
16154;DHT22;8182;55.648;13.208;2023-08-24T00:27:35;17.30;99.90
16154;DHT22;8182;55.648;13.208;2023-08-24T00:30:10;17.20;99.90
16154;DHT22;8182;55.648;13.208;2023-08-24T00:32:37;17.00;99.90
16154;DHT22;8182;55.648;13.208;2023-08-24T00:35:05;16.90;99.90
16154;DHT22;8182;55.648;13.208;2023-08-24T00:37:33;16.90;99.90
16154;DHT22;8182;55.648;13.208;2023-08-24T00:40:00;16.80;99.90
16154;DHT22;8182;55.648;13.208;2023-08-24T00:42:31;16.70;99.90
16154;DHT22;8182;55.648;13.208;2023-08-24T00:44:58;16.60;99.90
16154;DHT22;8182;55.648;13.208;2023-08-24T00:47:25;16.60;99.90
16154;DHT22;8182;55.648;13.208;2023-08-24T00:49:53;16.50;99.90
16154;DHT22;8182;55.648;13.208;2023-08-24T00:52:20;16.50;99.90
16154;DHT22;8182;55.648;13.208;2023-08-24T00:54:48;16.50;99.90
16154;DHT22;8182;55.648;13.208;2023-08-24T00:57:15;16.40;99.90
16154;DHT22;8182;55.648;13.208;2023-08-24T00:59:44;16.30;99.90
16154;DHT22;8182;55.648;13.208;2023-08-24T01:02:12;16.40;99.90
16154;DHT22;8182;55.648;13.208;2023-08-24T01:04:41;16.40;99.90
16154;DHT22;8182;55.648;13.208;2023-08-24T01:07:08;16.40;99.90
16154;DHT22;8182;55.648;13.208;2023-08-24T01:09:36;16.30;99.90
16154;DHT22;8182;55.648;13.208;2023-08-24T01:12:12;16.10;99.90
16154;DHT22;8182;55.648;13.208;2023-08-24T01:14:47;16.10;99.90
16154;DHT22;8182;55.648;13.208;2023-08-24T01:17:22;16.00;99.90
16154;DHT22;8182;55.648;13.208;2023-08-24T01:19:54;15.90;99.90
16154;DHT22;8182;55.648;13.208;2023-08-24T01:22:31;15.80;99.90
16154;DHT22;8182;55.648;13.208;2023-08-24T01:25:04;15.80;99.90
16154;DHT22;8182;55.648;13.208;2023-08-24T01:27:36;15.80;99.90
16154;DHT22;8182;55.648;13.208;2023-08-24T01:30:03;15.80;99.90
16154;DHT22;8182;55.648;13.208;2023-08-24T01:32:31;15.80;99.90
16154;DHT22;8182;55.648;13.208;2023-08-24T01:34:59;15.90;99.90
16154;DHT22;8182;55.648;13.208;2023-08-24T01:37:26;15.80;99.90
16154;DHT22;8182;55.648;13.208;2023-08-24T01:39:58;15.70;99.90
16154;DHT22;8182;55.648;13.208;2023-08-24T01:42:32;15.60;99.90
16154;DHT22;8182;55.648;13.208;2023-08-24T01:45:05;15.70;99.90
16154;DHT22;8182;55.648;13.208;2023-08-24T01:47:35;15.60;99.90
16154;DHT22;8182;55.648;13.208;2023-08-24T01:50:04;15.50;99.90
16154;DHT22;8182;55.648;13.208;2023-08-24T01:52:32;15.60;99.90
16154;DHT22;8182;55.648;13.208;2023-08-24T01:55:01;15.50;99.90
16154;DHT22;8182;55.648;13.208;2023-08-24T01:57:28;15.40;99.90
16154;DHT22;8182;55.648;13.208;2023-08-24T01:59:55;15.40;99.90
16154;DHT22;8182;55.648;13.208;2023-08-24T02:02:24;15.40;99.90
16154;DHT22;8182;55.648;13.208;2023-08-24T02:04:51;15.30;99.90
16154;DHT22;8182;55.648;13.208;2023-08-24T02:07:18;15.40;99.90
16154;DHT22;8182;55.648;13.208;2023-08-24T02:09:46;15.30;99.90
16154;DHT22;8182;55.648;13.208;2023-08-24T02:12:13;15.20;99.90
16154;DHT22;8182;55.648;13.208;2023-08-24T02:14:41;15.20;99.90
16154;DHT22;8182;55.648;13.208;2023-08-24T02:17:08;15.30;99.90
16154;DHT22;8182;55.648;13.208;2023-08-24T02:19:37;15.20;99.90
16154;DHT22;8182;55.648;13.208;2023-08-24T02:22:04;15.20;99.90
16154;DHT22;8182;55.648;13.208;2023-08-24T02:24:31;15.20;99.90
16154;DHT22;8182;55.648;13.208;2023-08-24T02:26:58;15.30;99.90
16154;DHT22;8182;55.648;13.208;2023-08-24T02:29:25;15.30;99.90
16154;DHT22;8182;55.648;13.208;2023-08-24T02:31:53;15.40;99.90
16154;DHT22;8182;55.648;13.208;2023-08-24T02:34:28;15.30;99.90
16154;DHT22;8182;55.648;13.208;2023-08-24T02:36:56;15.40;99.90
16154;DHT22;8182;55.648;13.208;2023-08-24T02:39:24;15.50;99.90
16154;DHT22;8182;55.648;13.208;2023-08-24T02:41:51;15.50;99.90
16154;DHT22;8182;55.648;13.208;2023-08-24T02:44:19;15.60;99.90
16154;DHT22;8182;55.648;13.208;2023-08-24T02:46:48;15.70;99.90
16154;DHT22;8182;55.648;13.208;2023-08-24T02:49:20;15.70;99.90
16154;DHT22;8182;55.648;13.208;2023-08-24T02:51:50;15.70;99.90
16154;DHT22;8182;55.648;13.208;2023-08-24T02:54:19;15.70;99.90
16154;DHT22;8182;55.648;13.208;2023-08-24T02:56:46;15.70;99.90
16154;DHT22;8182;55.648;13.208;2023-08-24T02:59:13;15.60;99.90
16154;DHT22;8182;55.648;13.208;2023-08-24T03:01:39;15.60;99.90
16154;DHT22;8182;55.648;13.208;2023-08-24T03:04:07;15.70;99.90
16154;DHT22;8182;55.648;13.208;2023-08-24T03:06:34;15.70;99.90
16154;DHT22;8182;55.648;13.208;2023-08-24T03:09:02;15.80;99.90
16154;DHT22;8182;55.648;13.208;2023-08-24T03:11:31;15.70;99.90
16154;DHT22;8182;55.648;13.208;2023-08-24T03:13:58;15.60;99.90
16154;DHT22;8182;55.648;13.208;2023-08-24T03:16:26;15.70;99.90
16154;DHT22;8182;55.648;13.208;2023-08-24T03:18:53;15.60;99.90
16154;DHT22;8182;55.648;13.208;2023-08-24T03:21:20;15.60;99.90
16154;DHT22;8182;55.648;13.208;2023-08-24T03:23:55;15.70;99.90
16154;DHT22;8182;55.648;13.208;2023-08-24T03:26:22;15.60;99.90
16154;DHT22;8182;55.648;13.208;2023-08-24T03:28:51;15.50;99.90
16154;DHT22;8182;55.648;13.208;2023-08-24T03:31:18;15.50;99.90
16154;DHT22;8182;55.648;13.208;2023-08-24T03:33:46;15.50;99.90
16154;DHT22;8182;55.648;13.208;2023-08-24T03:36:13;15.70;99.90
16154;DHT22;8182;55.648;13.208;2023-08-24T03:38:40;15.40;99.90
16154;DHT22;8182;55.648;13.208;2023-08-24T03:41:07;15.50;99.90
16154;DHT22;8182;55.648;13.208;2023-08-24T03:43:37;15.50;99.90
16154;DHT22;8182;55.648;13.208;2023-08-24T03:46:06;15.50;99.90
16154;DHT22;8182;55.648;13.208;2023-08-24T03:48:33;15.30;99.90
16154;DHT22;8182;55.648;13.208;2023-08-24T03:51:00;15.20;99.90
16154;DHT22;8182;55.648;13.208;2023-08-24T03:53:30;15.20;99.90
16154;DHT22;8182;55.648;13.208;2023-08-24T03:55:58;15.10;99.90
16154;DHT22;8182;55.648;13.208;2023-08-24T03:58:25;15.10;99.90
16154;DHT22;8182;55.648;13.208;2023-08-24T04:00:52;15.00;99.90
16154;DHT22;8182;55.648;13.208;2023-08-24T04:03:21;15.10;99.90
16154;DHT22;8182;55.648;13.208;2023-08-24T04:05:48;15.20;99.90
16154;DHT22;8182;55.648;13.208;2023-08-24T04:08:15;15.30;99.90
16154;DHT22;8182;55.648;13.208;2023-08-24T04:10:47;15.50;99.90
16154;DHT22;8182;55.648;13.208;2023-08-24T04:13:14;15.50;99.90
16154;DHT22;8182;55.648;13.208;2023-08-24T04:15:41;15.60;99.90
16154;DHT22;8182;55.648;13.208;2023-08-24T04:18:08;15.70;99.90
16154;DHT22;8182;55.648;13.208;2023-08-24T04:20:38;15.60;99.90
16154;DHT22;8182;55.648;13.208;2023-08-24T04:23:05;15.70;99.90
16154;DHT22;8182;55.648;13.208;2023-08-24T04:25:32;15.70;99.90
16154;DHT22;8182;55.648;13.208;2023-08-24T04:27:59;15.70;99.90
16154;DHT22;8182;55.648;13.208;2023-08-24T04:30:26;15.70;99.90
16154;DHT22;8182;55.648;13.208;2023-08-24T04:32:56;15.70;99.90
16154;DHT22;8182;55.648;13.208;2023-08-24T04:35:25;15.60;99.90
16154;DHT22;8182;55.648;13.208;2023-08-24T04:37:53;15.60;99.90
16154;DHT22;8182;55.648;13.208;2023-08-24T04:40:21;15.60;99.90
16154;DHT22;8182;55.648;13.208;2023-08-24T04:42:47;15.60;99.90
16154;DHT22;8182;55.648;13.208;2023-08-24T04:45:14;15.70;99.90
16154;DHT22;8182;55.648;13.208;2023-08-24T04:47:41;15.60;99.90
16154;DHT22;8182;55.648;13.208;2023-08-24T04:50:10;15.70;99.90
16154;DHT22;8182;55.648;13.208;2023-08-24T04:52:37;15.70;99.90
16154;DHT22;8182;55.648;13.208;2023-08-24T04:55:06;15.80;99.90
16154;DHT22;8182;55.648;13.208;2023-08-24T04:57:34;15.80;99.90
16154;DHT22;8182;55.648;13.208;2023-08-24T05:00:01;15.90;99.90
16154;DHT22;8182;55.648;13.208;2023-08-24T05:02:31;16.00;99.90
16154;DHT22;8182;55.648;13.208;2023-08-24T05:04:57;16.10;99.90
16154;DHT22;8182;55.648;13.208;2023-08-24T05:07:28;16.20;99.90
16154;DHT22;8182;55.648;13.208;2023-08-24T05:09:56;16.30;99.90
16154;DHT22;8182;55.648;13.208;2023-08-24T05:12:24;16.40;99.90
16154;DHT22;8182;55.648;13.208;2023-08-24T05:15:11;16.50;99.90
16154;DHT22;8182;55.648;13.208;2023-08-24T05:17:39;16.60;99.90
16154;DHT22;8182;55.648;13.208;2023-08-24T05:20:08;16.70;99.90
16154;DHT22;8182;55.648;13.208;2023-08-24T05:22:36;16.80;99.90
16154;DHT22;8182;55.648;13.208;2023-08-24T05:25:11;16.90;99.90
16154;DHT22;8182;55.648;13.208;2023-08-24T05:27:42;17.00;99.90
16154;DHT22;8182;55.648;13.208;2023-08-24T05:30:10;17.20;99.90
16154;DHT22;8182;55.648;13.208;2023-08-24T05:32:37;17.20;99.90
16154;DHT22;8182;55.648;13.208;2023-08-24T05:35:05;17.30;99.90
16154;DHT22;8182;55.648;13.208;2023-08-24T05:37:32;17.40;99.90
16154;DHT22;8182;55.648;13.208;2023-08-24T05:39:59;17.40;99.90
16154;DHT22;8182;55.648;13.208;2023-08-24T05:42:27;17.50;99.90
16154;DHT22;8182;55.648;13.208;2023-08-24T05:44:56;17.60;99.90
16154;DHT22;8182;55.648;13.208;2023-08-24T05:47:23;17.60;99.90
16154;DHT22;8182;55.648;13.208;2023-08-24T05:49:50;17.60;99.90
16154;DHT22;8182;55.648;13.208;2023-08-24T05:52:17;17.60;99.90
16154;DHT22;8182;55.648;13.208;2023-08-24T05:54:44;17.60;99.90
16154;DHT22;8182;55.648;13.208;2023-08-24T05:57:11;17.50;99.90
16154;DHT22;8182;55.648;13.208;2023-08-24T05:59:37;17.60;99.90
16154;DHT22;8182;55.648;13.208;2023-08-24T06:02:06;17.70;99.90
16154;DHT22;8182;55.648;13.208;2023-08-24T06:04:32;17.80;99.90
16154;DHT22;8182;55.648;13.208;2023-08-24T06:06:59;17.80;99.90
16154;DHT22;8182;55.648;13.208;2023-08-24T06:09:26;17.90;99.90
16154;DHT22;8182;55.648;13.208;2023-08-24T06:11:53;17.80;99.90
16154;DHT22;8182;55.648;13.208;2023-08-24T06:14:23;17.80;99.90
16154;DHT22;8182;55.648;13.208;2023-08-24T06:16:53;17.80;99.90
16154;DHT22;8182;55.648;13.208;2023-08-24T06:19:22;17.80;99.90
16154;DHT22;8182;55.648;13.208;2023-08-24T06:21:49;18.00;99.90
16154;DHT22;8182;55.648;13.208;2023-08-24T06:24:16;18.10;99.90
16154;DHT22;8182;55.648;13.208;2023-08-24T06:26:47;18.20;99.90
16154;DHT22;8182;55.648;13.208;2023-08-24T06:29:15;18.10;99.90
16154;DHT22;8182;55.648;13.208;2023-08-24T06:31:46;18.30;99.90
16154;DHT22;8182;55.648;13.208;2023-08-24T06:34:14;18.60;99.90
16154;DHT22;8182;55.648;13.208;2023-08-24T06:36:44;18.70;99.90
16154;DHT22;8182;55.648;13.208;2023-08-24T06:39:14;18.70;99.90
16154;DHT22;8182;55.648;13.208;2023-08-24T06:41:41;18.50;99.90
16154;DHT22;8182;55.648;13.208;2023-08-24T06:44:08;18.60;99.90
16154;DHT22;8182;55.648;13.208;2023-08-24T06:46:35;18.70;99.90
16154;DHT22;8182;55.648;13.208;2023-08-24T06:49:02;18.70;99.90
16154;DHT22;8182;55.648;13.208;2023-08-24T06:51:34;18.50;99.90
16154;DHT22;8182;55.648;13.208;2023-08-24T06:54:02;18.50;99.90
16154;DHT22;8182;55.648;13.208;2023-08-24T06:56:29;18.90;99.90
16154;DHT22;8182;55.648;13.208;2023-08-24T06:58:56;19.30;99.90
16154;DHT22;8182;55.648;13.208;2023-08-24T07:01:23;19.40;99.90
16154;DHT22;8182;55.648;13.208;2023-08-24T07:03:51;19.40;99.90
16154;DHT22;8182;55.648;13.208;2023-08-24T07:06:19;19.50;99.90
16154;DHT22;8182;55.648;13.208;2023-08-24T07:08:46;19.60;99.90
16154;DHT22;8182;55.648;13.208;2023-08-24T07:11:15;19.90;99.90
16154;DHT22;8182;55.648;13.208;2023-08-24T07:13:43;20.40;99.90
16154;DHT22;8182;55.648;13.208;2023-08-24T07:16:13;20.40;99.90
16154;DHT22;8182;55.648;13.208;2023-08-24T07:18:50;20.60;99.90
16154;DHT22;8182;55.648;13.208;2023-08-24T07:21:17;21.00;99.90
16154;DHT22;8182;55.648;13.208;2023-08-24T07:23:44;21.30;99.90
16154;DHT22;8182;55.648;13.208;2023-08-24T07:26:12;21.40;99.90
16154;DHT22;8182;55.648;13.208;2023-08-24T07:28:41;21.10;99.90
16154;DHT22;8182;55.648;13.208;2023-08-24T07:31:08;21.00;99.90
16154;DHT22;8182;55.648;13.208;2023-08-24T07:33:42;20.80;99.90
16154;DHT22;8182;55.648;13.208;2023-08-24T07:36:09;20.60;99.90
16154;DHT22;8182;55.648;13.208;2023-08-24T07:38:37;20.80;99.90
16154;DHT22;8182;55.648;13.208;2023-08-24T07:41:06;21.30;99.90
16154;DHT22;8182;55.648;13.208;2023-08-24T07:43:35;21.40;99.90
16154;DHT22;8182;55.648;13.208;2023-08-24T07:46:04;20.90;99.90
16154;DHT22;8182;55.648;13.208;2023-08-24T07:48:31;20.60;99.90
16154;DHT22;8182;55.648;13.208;2023-08-24T07:50:58;21.00;99.90
16154;DHT22;8182;55.648;13.208;2023-08-24T07:53:25;21.00;99.90
16154;DHT22;8182;55.648;13.208;2023-08-24T07:55:58;21.10;99.90
16154;DHT22;8182;55.648;13.208;2023-08-24T07:58:25;20.90;99.90
16154;DHT22;8182;55.648;13.208;2023-08-24T08:00:53;20.80;99.90
16154;DHT22;8182;55.648;13.208;2023-08-24T08:03:21;20.90;99.90
16154;DHT22;8182;55.648;13.208;2023-08-24T08:05:48;20.80;99.90
16154;DHT22;8182;55.648;13.208;2023-08-24T08:08:16;20.70;99.90
16154;DHT22;8182;55.648;13.208;2023-08-24T08:10:43;20.80;99.90
16154;DHT22;8182;55.648;13.208;2023-08-24T08:13:11;20.90;99.90
16154;DHT22;8182;55.648;13.208;2023-08-24T08:15:38;20.70;99.90
16154;DHT22;8182;55.648;13.208;2023-08-24T08:18:06;20.80;99.90
16154;DHT22;8182;55.648;13.208;2023-08-24T08:20:34;21.00;99.90
16154;DHT22;8182;55.648;13.208;2023-08-24T08:23:01;21.10;99.90
16154;DHT22;8182;55.648;13.208;2023-08-24T08:25:28;21.00;99.90
16154;DHT22;8182;55.648;13.208;2023-08-24T08:27:55;21.00;99.90
16154;DHT22;8182;55.648;13.208;2023-08-24T08:30:23;21.30;99.90
16154;DHT22;8182;55.648;13.208;2023-08-24T08:32:50;21.30;99.90
16154;DHT22;8182;55.648;13.208;2023-08-24T08:35:18;21.30;99.90
16154;DHT22;8182;55.648;13.208;2023-08-24T08:37:46;21.20;99.90
16154;DHT22;8182;55.648;13.208;2023-08-24T08:40:15;21.50;99.90
16154;DHT22;8182;55.648;13.208;2023-08-24T08:42:42;21.50;99.90
16154;DHT22;8182;55.648;13.208;2023-08-24T08:45:10;21.90;99.90
16154;DHT22;8182;55.648;13.208;2023-08-24T08:47:38;22.00;99.90
16154;DHT22;8182;55.648;13.208;2023-08-24T08:50:07;22.70;99.90
16154;DHT22;8182;55.648;13.208;2023-08-24T08:52:35;22.50;99.90
16154;DHT22;8182;55.648;13.208;2023-08-24T08:55:04;22.30;99.90
16154;DHT22;8182;55.648;13.208;2023-08-24T08:57:42;23.10;99.90
16154;DHT22;8182;55.648;13.208;2023-08-24T09:00:10;23.00;99.90
16154;DHT22;8182;55.648;13.208;2023-08-24T09:02:49;23.10;99.90
16154;DHT22;8182;55.648;13.208;2023-08-24T09:05:18;23.40;99.90
16154;DHT22;8182;55.648;13.208;2023-08-24T09:07:47;23.80;99.90
16154;DHT22;8182;55.648;13.208;2023-08-24T09:10:16;23.40;99.90
16154;DHT22;8182;55.648;13.208;2023-08-24T09:12:43;23.30;99.90
16154;DHT22;8182;55.648;13.208;2023-08-24T09:15:24;23.90;99.90
16154;DHT22;8182;55.648;13.208;2023-08-24T09:17:50;23.90;99.90
16154;DHT22;8182;55.648;13.208;2023-08-24T09:20:17;23.40;99.90
16154;DHT22;8182;55.648;13.208;2023-08-24T09:22:45;23.70;99.90
16154;DHT22;8182;55.648;13.208;2023-08-24T09:25:12;24.30;99.90
16154;DHT22;8182;55.648;13.208;2023-08-24T09:27:40;24.60;99.90
16154;DHT22;8182;55.648;13.208;2023-08-24T09:30:09;23.90;99.90
16154;DHT22;8182;55.648;13.208;2023-08-24T09:32:37;23.90;99.90
16154;DHT22;8182;55.648;13.208;2023-08-24T09:35:06;24.70;99.90
16154;DHT22;8182;55.648;13.208;2023-08-24T09:37:35;23.90;99.90
16154;DHT22;8182;55.648;13.208;2023-08-24T09:40:03;23.70;99.90
16154;DHT22;8182;55.648;13.208;2023-08-24T09:42:37;23.30;99.90
16154;DHT22;8182;55.648;13.208;2023-08-24T09:45:12;23.60;99.90
16154;DHT22;8182;55.648;13.208;2023-08-24T09:47:45;24.20;99.90
16154;DHT22;8182;55.648;13.208;2023-08-24T09:50:12;23.90;99.90
16154;DHT22;8182;55.648;13.208;2023-08-24T09:52:42;24.30;99.90
16154;DHT22;8182;55.648;13.208;2023-08-24T09:55:09;24.80;99.90
16154;DHT22;8182;55.648;13.208;2023-08-24T09:57:42;25.10;99.90
16154;DHT22;8182;55.648;13.208;2023-08-24T10:00:13;25.30;99.90
16154;DHT22;8182;55.648;13.208;2023-08-24T10:02:53;25.90;99.90
16154;DHT22;8182;55.648;13.208;2023-08-24T10:05:23;25.40;99.90
16154;DHT22;8182;55.648;13.208;2023-08-24T10:07:52;25.80;99.90
16154;DHT22;8182;55.648;13.208;2023-08-24T10:10:20;26.10;99.90
16154;DHT22;8182;55.648;13.208;2023-08-24T10:12:51;26.00;99.90
16154;DHT22;8182;55.648;13.208;2023-08-24T10:15:22;26.70;99.90
16154;DHT22;8182;55.648;13.208;2023-08-24T10:17:52;26.80;99.90
16154;DHT22;8182;55.648;13.208;2023-08-24T10:20:20;26.90;99.90
16154;DHT22;8182;55.648;13.208;2023-08-24T10:22:47;27.10;99.90
16154;DHT22;8182;55.648;13.208;2023-08-24T10:25:18;26.50;99.90
16154;DHT22;8182;55.648;13.208;2023-08-24T10:27:46;25.80;99.90
16154;DHT22;8182;55.648;13.208;2023-08-24T10:30:16;25.50;99.90
16154;DHT22;8182;55.648;13.208;2023-08-24T10:32:45;25.20;99.90
16154;DHT22;8182;55.648;13.208;2023-08-24T10:35:14;25.10;99.90
16154;DHT22;8182;55.648;13.208;2023-08-24T10:37:44;24.80;99.90
16154;DHT22;8182;55.648;13.208;2023-08-24T10:40:15;24.90;99.90
16154;DHT22;8182;55.648;13.208;2023-08-24T10:42:57;25.50;99.90
16154;DHT22;8182;55.648;13.208;2023-08-24T10:45:24;26.30;99.90
16154;DHT22;8182;55.648;13.208;2023-08-24T10:47:55;26.90;99.90
16154;DHT22;8182;55.648;13.208;2023-08-24T10:50:23;27.00;99.90
16154;DHT22;8182;55.648;13.208;2023-08-24T10:52:53;26.30;99.90
16154;DHT22;8182;55.648;13.208;2023-08-24T10:55:32;26.00;99.90
16154;DHT22;8182;55.648;13.208;2023-08-24T10:58:02;25.40;99.90
16154;DHT22;8182;55.648;13.208;2023-08-24T11:00:30;25.10;99.90
16154;DHT22;8182;55.648;13.208;2023-08-24T11:02:59;25.50;99.90
16154;DHT22;8182;55.648;13.208;2023-08-24T11:05:27;25.40;99.90
16154;DHT22;8182;55.648;13.208;2023-08-24T11:07:57;25.00;99.90
16154;DHT22;8182;55.648;13.208;2023-08-24T11:10:32;24.50;99.90
16154;DHT22;8182;55.648;13.208;2023-08-24T11:13:11;24.30;99.90
16154;DHT22;8182;55.648;13.208;2023-08-24T11:15:39;24.10;99.90
16154;DHT22;8182;55.648;13.208;2023-08-24T11:18:28;23.90;99.90
16154;DHT22;8182;55.648;13.208;2023-08-24T11:20:56;23.60;99.90
16154;DHT22;8182;55.648;13.208;2023-08-24T11:23:23;23.60;99.90
16154;DHT22;8182;55.648;13.208;2023-08-24T11:25:55;23.70;99.90
16154;DHT22;8182;55.648;13.208;2023-08-24T11:28:24;23.70;99.90
16154;DHT22;8182;55.648;13.208;2023-08-24T11:30:51;24.20;99.90
16154;DHT22;8182;55.648;13.208;2023-08-24T11:33:29;24.30;99.90
16154;DHT22;8182;55.648;13.208;2023-08-24T11:35:59;24.10;99.90
16154;DHT22;8182;55.648;13.208;2023-08-24T11:38:25;23.90;99.90
16154;DHT22;8182;55.648;13.208;2023-08-24T11:41:05;23.90;99.90
16154;DHT22;8182;55.648;13.208;2023-08-24T11:43:42;23.70;99.90
16154;DHT22;8182;55.648;13.208;2023-08-24T11:46:09;23.50;99.90
16154;DHT22;8182;55.648;13.208;2023-08-24T11:48:38;23.60;99.90
16154;DHT22;8182;55.648;13.208;2023-08-24T11:51:08;23.40;99.90
16154;DHT22;8182;55.648;13.208;2023-08-24T11:53:37;23.50;99.90
16154;DHT22;8182;55.648;13.208;2023-08-24T11:56:04;23.40;99.90
16154;DHT22;8182;55.648;13.208;2023-08-24T11:58:33;23.50;99.90
16154;DHT22;8182;55.648;13.208;2023-08-24T12:01:00;23.40;99.90
16154;DHT22;8182;55.648;13.208;2023-08-24T12:03:27;23.40;99.90
16154;DHT22;8182;55.648;13.208;2023-08-24T12:06:10;23.50;99.90
16154;DHT22;8182;55.648;13.208;2023-08-24T12:08:38;23.70;99.90
16154;DHT22;8182;55.648;13.208;2023-08-24T12:11:13;23.80;99.90
16154;DHT22;8182;55.648;13.208;2023-08-24T12:13:45;23.60;99.90
16154;DHT22;8182;55.648;13.208;2023-08-24T12:16:13;23.50;99.90
16154;DHT22;8182;55.648;13.208;2023-08-24T12:18:51;23.50;99.90
16154;DHT22;8182;55.648;13.208;2023-08-24T12:21:23;23.50;99.90
16154;DHT22;8182;55.648;13.208;2023-08-24T12:23:57;23.60;99.90
16154;DHT22;8182;55.648;13.208;2023-08-24T12:26:24;23.50;99.90
16154;DHT22;8182;55.648;13.208;2023-08-24T12:28:59;23.40;99.90
16154;DHT22;8182;55.648;13.208;2023-08-24T12:31:26;23.50;99.90
16154;DHT22;8182;55.648;13.208;2023-08-24T12:34:01;23.40;99.90
16154;DHT22;8182;55.648;13.208;2023-08-24T12:36:30;23.50;99.90
16154;DHT22;8182;55.648;13.208;2023-08-24T12:38:58;23.50;99.90
16154;DHT22;8182;55.648;13.208;2023-08-24T12:41:28;23.60;99.90
16154;DHT22;8182;55.648;13.208;2023-08-24T12:43:55;23.50;99.90
16154;DHT22;8182;55.648;13.208;2023-08-24T12:46:25;23.50;99.90
16154;DHT22;8182;55.648;13.208;2023-08-24T12:48:53;23.40;99.90
16154;DHT22;8182;55.648;13.208;2023-08-24T12:51:26;23.20;99.90
16154;DHT22;8182;55.648;13.208;2023-08-24T12:53:57;23.30;99.90
16154;DHT22;8182;55.648;13.208;2023-08-24T12:56:24;23.30;99.90
16154;DHT22;8182;55.648;13.208;2023-08-24T12:59:00;23.40;99.90
16154;DHT22;8182;55.648;13.208;2023-08-24T13:01:27;23.40;99.90
16154;DHT22;8182;55.648;13.208;2023-08-24T13:03:55;23.40;99.90
16154;DHT22;8182;55.648;13.208;2023-08-24T13:06:22;23.60;99.90
16154;DHT22;8182;55.648;13.208;2023-08-24T13:08:57;23.60;99.90
16154;DHT22;8182;55.648;13.208;2023-08-24T13:11:24;23.30;99.90
16154;DHT22;8182;55.648;13.208;2023-08-24T13:13:51;23.20;99.90
16154;DHT22;8182;55.648;13.208;2023-08-24T13:16:20;23.30;99.90
16154;DHT22;8182;55.648;13.208;2023-08-24T13:18:47;23.20;99.90
16154;DHT22;8182;55.648;13.208;2023-08-24T13:21:17;23.00;99.90
16154;DHT22;8182;55.648;13.208;2023-08-24T13:23:44;23.10;99.90
16154;DHT22;8182;55.648;13.208;2023-08-24T13:26:19;23.00;99.90
16154;DHT22;8182;55.648;13.208;2023-08-24T13:28:47;23.40;99.90
16154;DHT22;8182;55.648;13.208;2023-08-24T13:31:14;23.30;99.90
16154;DHT22;8182;55.648;13.208;2023-08-24T13:33:41;23.20;99.90
16154;DHT22;8182;55.648;13.208;2023-08-24T13:36:08;23.10;99.90
16154;DHT22;8182;55.648;13.208;2023-08-24T13:38:34;23.20;99.90
16154;DHT22;8182;55.648;13.208;2023-08-24T13:41:04;23.40;99.90
16154;DHT22;8182;55.648;13.208;2023-08-24T13:43:32;23.30;99.90
16154;DHT22;8182;55.648;13.208;2023-08-24T13:45:59;23.60;99.90
16154;DHT22;8182;55.648;13.208;2023-08-24T13:48:26;23.20;99.90
16154;DHT22;8182;55.648;13.208;2023-08-24T13:50:55;23.10;99.90
16154;DHT22;8182;55.648;13.208;2023-08-24T13:53:22;23.00;99.90
16154;DHT22;8182;55.648;13.208;2023-08-24T13:55:49;23.00;99.90
16154;DHT22;8182;55.648;13.208;2023-08-24T13:58:16;23.00;99.90
16154;DHT22;8182;55.648;13.208;2023-08-24T14:00:44;22.90;99.90
16154;DHT22;8182;55.648;13.208;2023-08-24T14:03:12;23.00;99.90
16154;DHT22;8182;55.648;13.208;2023-08-24T14:05:42;23.10;99.90
16154;DHT22;8182;55.648;13.208;2023-08-24T14:08:09;23.10;99.90
16154;DHT22;8182;55.648;13.208;2023-08-24T14:10:39;23.10;99.90
16154;DHT22;8182;55.648;13.208;2023-08-24T14:13:06;23.20;99.90
16154;DHT22;8182;55.648;13.208;2023-08-24T14:15:33;23.40;99.90
16154;DHT22;8182;55.648;13.208;2023-08-24T14:18:02;23.40;99.90
16154;DHT22;8182;55.648;13.208;2023-08-24T14:20:29;23.50;99.90
16154;DHT22;8182;55.648;13.208;2023-08-24T14:22:56;23.20;99.90
16154;DHT22;8182;55.648;13.208;2023-08-24T14:25:23;23.30;99.90
16154;DHT22;8182;55.648;13.208;2023-08-24T14:27:50;23.30;99.90
16154;DHT22;8182;55.648;13.208;2023-08-24T14:30:17;23.20;99.90
16154;DHT22;8182;55.648;13.208;2023-08-24T14:32:44;23.30;99.90
16154;DHT22;8182;55.648;13.208;2023-08-24T14:35:12;23.20;99.90
16154;DHT22;8182;55.648;13.208;2023-08-24T14:37:39;22.90;99.90
16154;DHT22;8182;55.648;13.208;2023-08-24T14:40:10;22.70;99.90
16154;DHT22;8182;55.648;13.208;2023-08-24T14:42:43;22.80;99.90
16154;DHT22;8182;55.648;13.208;2023-08-24T14:45:10;22.90;99.90
16154;DHT22;8182;55.648;13.208;2023-08-24T14:47:37;22.90;99.90
16154;DHT22;8182;55.648;13.208;2023-08-24T14:50:05;22.80;99.90
16154;DHT22;8182;55.648;13.208;2023-08-24T14:52:34;22.90;99.90
16154;DHT22;8182;55.648;13.208;2023-08-24T14:55:01;22.90;99.90
16154;DHT22;8182;55.648;13.208;2023-08-24T14:57:28;22.70;99.90
16154;DHT22;8182;55.648;13.208;2023-08-24T14:59:55;22.70;99.90
16154;DHT22;8182;55.648;13.208;2023-08-24T15:02:22;22.70;99.90
16154;DHT22;8182;55.648;13.208;2023-08-24T15:04:49;22.60;99.90
16154;DHT22;8182;55.648;13.208;2023-08-24T15:07:15;22.50;99.90
16154;DHT22;8182;55.648;13.208;2023-08-24T15:09:44;22.50;99.90
16154;DHT22;8182;55.648;13.208;2023-08-24T15:12:10;22.40;99.90
16154;DHT22;8182;55.648;13.208;2023-08-24T15:14:37;22.40;99.90
16154;DHT22;8182;55.648;13.208;2023-08-24T15:17:22;22.50;99.90
16154;DHT22;8182;55.648;13.208;2023-08-24T15:19:49;22.40;99.90
16154;DHT22;8182;55.648;13.208;2023-08-24T15:22:16;22.20;99.90
16154;DHT22;8182;55.648;13.208;2023-08-24T15:24:45;22.10;99.90
16154;DHT22;8182;55.648;13.208;2023-08-24T15:27:11;22.20;99.90
16154;DHT22;8182;55.648;13.208;2023-08-24T15:29:38;22.20;99.90
16154;DHT22;8182;55.648;13.208;2023-08-24T15:32:05;22.10;99.90
16154;DHT22;8182;55.648;13.208;2023-08-24T15:34:32;22.00;99.90
16154;DHT22;8182;55.648;13.208;2023-08-24T15:36:59;21.90;99.90
16154;DHT22;8182;55.648;13.208;2023-08-24T15:39:28;21.90;99.90